sensor_id;sensor_type;location;lat;lon;timestamp;P1;durP1;ratioP1;P2;durP2;ratioP2
84946;SDS011;75241;51.692;5.196;2024-03-23T00:55:33;17.90;;;6.25;;
84946;SDS011;75241;51.692;5.196;2024-03-23T00:57:58;20.27;;;6.68;;
84946;SDS011;75241;51.692;5.196;2024-03-23T01:00:24;21.08;;;5.88;;
84946;SDS011;75241;51.692;5.196;2024-03-23T01:02:49;12.60;;;5.95;;
84946;SDS011;75241;51.692;5.196;2024-03-23T01:05:14;15.27;;;7.05;;
84946;SDS011;75241;51.692;5.196;2024-03-23T01:07:40;17.63;;;6.65;;
84946;SDS011;75241;51.692;5.196;2024-03-23T01:10:05;20.88;;;7.13;;
84946;SDS011;75241;51.692;5.196;2024-03-23T01:12:31;18.17;;;6.13;;
84946;SDS011;75241;51.692;5.196;2024-03-23T01:14:56;16.20;;;6.38;;
84946;SDS011;75241;51.692;5.196;2024-03-23T01:17:21;12.82;;;5.63;;
84946;SDS011;75241;51.692;5.196;2024-03-23T01:19:47;15.18;;;6.05;;
84946;SDS011;75241;51.692;5.196;2024-03-23T01:22:12;19.38;;;5.85;;
84946;SDS011;75241;51.692;5.196;2024-03-23T01:24:38;20.02;;;7.30;;
84946;SDS011;75241;51.692;5.196;2024-03-23T01:27:03;15.35;;;5.47;;
84946;SDS011;75241;51.692;5.196;2024-03-23T01:29:29;13.82;;;6.05;;
84946;SDS011;75241;51.692;5.196;2024-03-23T01:31:54;15.60;;;6.30;;
84946;SDS011;75241;51.692;5.196;2024-03-23T01:34:20;13.80;;;5.35;;
84946;SDS011;75241;51.692;5.196;2024-03-23T01:36:46;14.07;;;5.57;;
84946;SDS011;75241;51.692;5.196;2024-03-23T01:39:12;16.38;;;6.47;;
84946;SDS011;75241;51.692;5.196;2024-03-23T01:41:37;13.98;;;5.68;;
84946;SDS011;75241;51.692;5.196;2024-03-23T01:44:07;11.73;;;5.80;;
84946;SDS011;75241;51.692;5.196;2024-03-23T01:46:33;20.77;;;6.60;;
84946;SDS011;75241;51.692;5.196;2024-03-23T01:48:59;17.35;;;6.32;;
84946;SDS011;75241;51.692;5.196;2024-03-23T01:51:24;15.45;;;5.70;;
84946;SDS011;75241;51.692;5.196;2024-03-23T01:53:51;12.93;;;5.55;;
84946;SDS011;75241;51.692;5.196;2024-03-23T01:56:19;14.10;;;5.60;;
84946;SDS011;75241;51.692;5.196;2024-03-23T01:58:45;14.18;;;6.40;;
84946;SDS011;75241;51.692;5.196;2024-03-23T02:01:11;19.05;;;5.13;;
84946;SDS011;75241;51.692;5.196;2024-03-23T02:03:37;13.95;;;5.25;;
84946;SDS011;75241;51.692;5.196;2024-03-23T02:06:02;12.80;;;4.82;;
84946;SDS011;75241;51.692;5.196;2024-03-23T02:08:28;14.82;;;5.30;;
84946;SDS011;75241;51.692;5.196;2024-03-23T02:10:55;18.75;;;5.85;;
84946;SDS011;75241;51.692;5.196;2024-03-23T02:13:21;16.02;;;6.32;;
84946;SDS011;75241;51.692;5.196;2024-03-23T02:15:46;15.88;;;6.30;;
84946;SDS011;75241;51.692;5.196;2024-03-23T02:18:13;14.32;;;5.22;;
84946;SDS011;75241;51.692;5.196;2024-03-23T02:20:38;12.63;;;5.88;;
84946;SDS011;75241;51.692;5.196;2024-03-23T02:23:04;16.77;;;5.22;;
84946;SDS011;75241;51.692;5.196;2024-03-23T02:27:56;13.43;;;5.68;;
84946;SDS011;75241;51.692;5.196;2024-03-23T02:32:49;13.15;;;4.53;;
84946;SDS011;75241;51.692;5.196;2024-03-23T02:35:14;8.38;;;3.60;;
84946;SDS011;75241;51.692;5.196;2024-03-23T02:37:39;13.00;;;4.40;;
84946;SDS011;75241;51.692;5.196;2024-03-23T02:40:05;8.07;;;4.35;;
84946;SDS011;75241;51.692;5.196;2024-03-23T02:42:31;12.00;;;3.88;;
84946;SDS011;75241;51.692;5.196;2024-03-23T02:44:56;10.10;;;3.67;;
84946;SDS011;75241;51.692;5.196;2024-03-23T02:47:23;8.77;;;3.10;;
84946;SDS011;75241;51.692;5.196;2024-03-23T02:49:48;9.27;;;3.63;;
84946;SDS011;75241;51.692;5.196;2024-03-23T02:52:13;13.30;;;4.70;;
84946;SDS011;75241;51.692;5.196;2024-03-23T02:54:39;9.50;;;4.75;;
84946;SDS011;75241;51.692;5.196;2024-03-23T02:57:04;9.02;;;3.70;;
84946;SDS011;75241;51.692;5.196;2024-03-23T02:59:30;12.65;;;4.32;;
84946;SDS011;75241;51.692;5.196;2024-03-23T03:01:55;8.13;;;4.10;;
84946;SDS011;75241;51.692;5.196;2024-03-23T03:04:21;10.55;;;3.70;;
84946;SDS011;75241;51.692;5.196;2024-03-23T03:06:47;6.95;;;3.25;;
84946;SDS011;75241;51.692;5.196;2024-03-23T03:09:13;11.68;;;3.55;;
84946;SDS011;75241;51.692;5.196;2024-03-23T03:11:38;14.27;;;3.60;;
84946;SDS011;75241;51.692;5.196;2024-03-23T03:14:03;8.90;;;3.55;;
84946;SDS011;75241;51.692;5.196;2024-03-23T03:16:29;9.65;;;3.47;;
84946;SDS011;75241;51.692;5.196;2024-03-23T03:18:54;10.77;;;3.25;;
84946;SDS011;75241;51.692;5.196;2024-03-23T03:21:20;10.35;;;3.20;;
84946;SDS011;75241;51.692;5.196;2024-03-23T03:23:47;13.98;;;3.92;;
84946;SDS011;75241;51.692;5.196;2024-03-23T03:26:15;9.10;;;2.60;;
84946;SDS011;75241;51.692;5.196;2024-03-23T03:28:40;7.45;;;2.75;;
84946;SDS011;75241;51.692;5.196;2024-03-23T03:31:06;11.88;;;3.38;;
84946;SDS011;75241;51.692;5.196;2024-03-23T03:33:31;16.58;;;4.28;;
84946;SDS011;75241;51.692;5.196;2024-03-23T03:35:57;11.88;;;3.30;;
84946;SDS011;75241;51.692;5.196;2024-03-23T03:38:22;19.20;;;4.45;;
84946;SDS011;75241;51.692;5.196;2024-03-23T03:40:47;9.82;;;3.22;;
84946;SDS011;75241;51.692;5.196;2024-03-23T03:43:13;14.02;;;4.18;;
84946;SDS011;75241;51.692;5.196;2024-03-23T03:45:38;13.52;;;3.40;;
84946;SDS011;75241;51.692;5.196;2024-03-23T03:48:04;11.73;;;4.43;;
84946;SDS011;75241;51.692;5.196;2024-03-23T03:50:29;14.70;;;4.30;;
84946;SDS011;75241;51.692;5.196;2024-03-23T03:52:55;9.52;;;3.42;;
84946;SDS011;75241;51.692;5.196;2024-03-23T03:55:21;19.45;;;4.03;;
84946;SDS011;75241;51.692;5.196;2024-03-23T03:57:46;13.70;;;4.50;;
84946;SDS011;75241;51.692;5.196;2024-03-23T04:00:12;15.18;;;4.15;;
84946;SDS011;75241;51.692;5.196;2024-03-23T04:02:38;14.38;;;4.57;;
84946;SDS011;75241;51.692;5.196;2024-03-23T04:05:04;10.23;;;3.78;;
84946;SDS011;75241;51.692;5.196;2024-03-23T04:07:30;12.82;;;4.00;;
84946;SDS011;75241;51.692;5.196;2024-03-23T04:09:55;13.55;;;4.72;;
84946;SDS011;75241;51.692;5.196;2024-03-23T04:12:21;10.05;;;3.28;;
84946;SDS011;75241;51.692;5.196;2024-03-23T04:14:46;14.35;;;4.65;;
84946;SDS011;75241;51.692;5.196;2024-03-23T04:17:11;21.10;;;5.43;;
84946;SDS011;75241;51.692;5.196;2024-03-23T04:19:37;15.40;;;5.43;;
84946;SDS011;75241;51.692;5.196;2024-03-23T04:22:02;14.75;;;5.30;;
84946;SDS011;75241;51.692;5.196;2024-03-23T04:24:28;16.27;;;5.55;;
84946;SDS011;75241;51.692;5.196;2024-03-23T04:26:54;13.05;;;5.95;;
84946;SDS011;75241;51.692;5.196;2024-03-23T04:29:20;14.23;;;4.90;;
84946;SDS011;75241;51.692;5.196;2024-03-23T04:31:45;14.63;;;4.97;;
84946;SDS011;75241;51.692;5.196;2024-03-23T04:34:10;18.75;;;5.47;;
84946;SDS011;75241;51.692;5.196;2024-03-23T04:36:36;14.13;;;4.55;;
84946;SDS011;75241;51.692;5.196;2024-03-23T04:39:01;15.57;;;5.38;;
84946;SDS011;75241;51.692;5.196;2024-03-23T04:41:27;12.40;;;4.70;;
84946;SDS011;75241;51.692;5.196;2024-03-23T04:43:53;13.65;;;4.90;;
84946;SDS011;75241;51.692;5.196;2024-03-23T04:46:18;15.35;;;5.68;;
84946;SDS011;75241;51.692;5.196;2024-03-23T04:48:43;14.68;;;5.35;;
84946;SDS011;75241;51.692;5.196;2024-03-23T04:51:09;14.52;;;6.35;;
84946;SDS011;75241;51.692;5.196;2024-03-23T04:53:37;17.33;;;5.82;;
84946;SDS011;75241;51.692;5.196;2024-03-23T04:56:03;16.83;;;5.20;;
84946;SDS011;75241;51.692;5.196;2024-03-23T04:58:29;11.02;;;4.55;;
84946;SDS011;75241;51.692;5.196;2024-03-23T05:00:55;15.75;;;5.50;;
84946;SDS011;75241;51.692;5.196;2024-03-23T05:03:23;17.35;;;4.70;;
84946;SDS011;75241;51.692;5.196;2024-03-23T05:05:49;13.50;;;5.15;;
84946;SDS011;75241;51.692;5.196;2024-03-23T05:08:15;14.10;;;5.35;;
84946;SDS011;75241;51.692;5.196;2024-03-23T05:10:41;9.05;;;3.85;;
84946;SDS011;75241;51.692;5.196;2024-03-23T05:13:10;14.20;;;5.47;;
84946;SDS011;75241;51.692;5.196;2024-03-23T05:15:35;12.77;;;4.72;;
84946;SDS011;75241;51.692;5.196;2024-03-23T05:18:01;13.70;;;4.95;;
84946;SDS011;75241;51.692;5.196;2024-03-23T05:20:26;15.48;;;5.90;;
84946;SDS011;75241;51.692;5.196;2024-03-23T05:22:52;16.42;;;5.75;;
84946;SDS011;75241;51.692;5.196;2024-03-23T05:25:19;13.30;;;4.30;;
84946;SDS011;75241;51.692;5.196;2024-03-23T05:27:45;9.85;;;4.18;;
84946;SDS011;75241;51.692;5.196;2024-03-23T05:30:10;13.32;;;4.82;;
84946;SDS011;75241;51.692;5.196;2024-03-23T05:32:36;12.65;;;5.10;;
84946;SDS011;75241;51.692;5.196;2024-03-23T05:35:01;12.10;;;4.43;;
84946;SDS011;75241;51.692;5.196;2024-03-23T05:37:27;10.70;;;4.55;;
84946;SDS011;75241;51.692;5.196;2024-03-23T05:39:52;10.68;;;4.20;;
84946;SDS011;75241;51.692;5.196;2024-03-23T05:42:18;15.45;;;5.22;;
84946;SDS011;75241;51.692;5.196;2024-03-23T05:44:47;13.90;;;4.20;;
84946;SDS011;75241;51.692;5.196;2024-03-23T05:47:12;14.63;;;4.28;;
84946;SDS011;75241;51.692;5.196;2024-03-23T05:49:42;11.35;;;4.53;;
84946;SDS011;75241;51.692;5.196;2024-03-23T05:52:08;16.50;;;4.30;;
84946;SDS011;75241;51.692;5.196;2024-03-23T05:54:34;13.80;;;4.15;;
84946;SDS011;75241;51.692;5.196;2024-03-23T05:56:59;17.38;;;4.63;;
84946;SDS011;75241;51.692;5.196;2024-03-23T05:59:25;15.98;;;4.28;;
84946;SDS011;75241;51.692;5.196;2024-03-23T06:01:50;6.88;;;3.65;;
84946;SDS011;75241;51.692;5.196;2024-03-23T06:04:17;11.50;;;4.00;;
84946;SDS011;75241;51.692;5.196;2024-03-23T06:06:42;11.38;;;5.10;;
84946;SDS011;75241;51.692;5.196;2024-03-23T06:09:07;8.00;;;3.50;;
84946;SDS011;75241;51.692;5.196;2024-03-23T06:11:33;12.05;;;4.78;;
84946;SDS011;75241;51.692;5.196;2024-03-23T06:13:58;10.85;;;4.20;;
84946;SDS011;75241;51.692;5.196;2024-03-23T06:16:24;15.60;;;4.28;;
84946;SDS011;75241;51.692;5.196;2024-03-23T06:18:52;10.25;;;3.10;;
84946;SDS011;75241;51.692;5.196;2024-03-23T06:21:18;8.85;;;4.82;;
84946;SDS011;75241;51.692;5.196;2024-03-23T06:23:44;12.32;;;3.95;;
84946;SDS011;75241;51.692;5.196;2024-03-23T06:26:18;13.85;;;3.67;;
84946;SDS011;75241;51.692;5.196;2024-03-23T06:28:44;9.30;;;3.00;;
84946;SDS011;75241;51.692;5.196;2024-03-23T06:31:10;10.63;;;3.42;;
84946;SDS011;75241;51.692;5.196;2024-03-23T06:33:36;9.55;;;4.55;;
84946;SDS011;75241;51.692;5.196;2024-03-23T06:36:02;9.80;;;3.70;;
84946;SDS011;75241;51.692;5.196;2024-03-23T06:40:54;12.00;;;3.40;;
84946;SDS011;75241;51.692;5.196;2024-03-23T06:43:19;9.25;;;3.10;;
84946;SDS011;75241;51.692;5.196;2024-03-23T06:45:51;12.43;;;3.10;;
84946;SDS011;75241;51.692;5.196;2024-03-23T06:48:18;13.63;;;3.50;;
84946;SDS011;75241;51.692;5.196;2024-03-23T06:50:44;9.00;;;3.70;;
84946;SDS011;75241;51.692;5.196;2024-03-23T06:53:09;8.93;;;3.00;;
84946;SDS011;75241;51.692;5.196;2024-03-23T06:55:35;8.82;;;2.60;;
84946;SDS011;75241;51.692;5.196;2024-03-23T06:58:00;9.95;;;2.67;;
84946;SDS011;75241;51.692;5.196;2024-03-23T07:00:25;7.68;;;2.70;;
84946;SDS011;75241;51.692;5.196;2024-03-23T07:02:51;11.10;;;2.65;;
84946;SDS011;75241;51.692;5.196;2024-03-23T07:05:16;12.57;;;3.17;;
84946;SDS011;75241;51.692;5.196;2024-03-23T07:07:42;5.95;;;2.20;;
84946;SDS011;75241;51.692;5.196;2024-03-23T07:10:07;10.80;;;2.78;;
84946;SDS011;75241;51.692;5.196;2024-03-23T07:12:32;8.23;;;2.67;;
84946;SDS011;75241;51.692;5.196;2024-03-23T07:14:58;11.75;;;3.17;;
84946;SDS011;75241;51.692;5.196;2024-03-23T07:17:23;8.65;;;2.97;;
84946;SDS011;75241;51.692;5.196;2024-03-23T07:19:48;7.68;;;2.55;;
84946;SDS011;75241;51.692;5.196;2024-03-23T07:22:14;9.95;;;3.20;;
84946;SDS011;75241;51.692;5.196;2024-03-23T07:24:40;7.72;;;3.10;;
84946;SDS011;75241;51.692;5.196;2024-03-23T07:27:06;7.95;;;3.58;;
84946;SDS011;75241;51.692;5.196;2024-03-23T07:29:35;12.38;;;3.28;;
84946;SDS011;75241;51.692;5.196;2024-03-23T07:32:00;12.05;;;4.30;;
84946;SDS011;75241;51.692;5.196;2024-03-23T07:34:26;13.90;;;4.05;;
84946;SDS011;75241;51.692;5.196;2024-03-23T07:36:51;17.00;;;5.25;;
84946;SDS011;75241;51.692;5.196;2024-03-23T07:39:17;15.25;;;3.65;;
84946;SDS011;75241;51.692;5.196;2024-03-23T07:41:45;11.80;;;3.60;;
84946;SDS011;75241;51.692;5.196;2024-03-23T07:44:11;15.00;;;4.57;;
84946;SDS011;75241;51.692;5.196;2024-03-23T07:46:36;10.25;;;4.50;;
84946;SDS011;75241;51.692;5.196;2024-03-23T07:49:03;9.07;;;3.17;;
84946;SDS011;75241;51.692;5.196;2024-03-23T07:51:29;10.88;;;3.35;;
84946;SDS011;75241;51.692;5.196;2024-03-23T07:53:54;14.35;;;3.72;;
84946;SDS011;75241;51.692;5.196;2024-03-23T07:56:20;11.25;;;3.00;;
84946;SDS011;75241;51.692;5.196;2024-03-23T07:58:46;9.15;;;3.08;;
84946;SDS011;75241;51.692;5.196;2024-03-23T08:01:13;9.98;;;2.88;;
84946;SDS011;75241;51.692;5.196;2024-03-23T08:03:41;10.40;;;2.95;;
84946;SDS011;75241;51.692;5.196;2024-03-23T08:06:12;11.93;;;2.60;;
84946;SDS011;75241;51.692;5.196;2024-03-23T08:08:39;7.45;;;2.63;;
84946;SDS011;75241;51.692;5.196;2024-03-23T08:11:06;11.43;;;2.92;;
84946;SDS011;75241;51.692;5.196;2024-03-23T08:13:33;10.60;;;2.10;;
84946;SDS011;75241;51.692;5.196;2024-03-23T08:15:59;8.77;;;2.42;;
84946;SDS011;75241;51.692;5.196;2024-03-23T08:18:26;9.40;;;3.60;;
84946;SDS011;75241;51.692;5.196;2024-03-23T08:20:59;11.10;;;2.78;;
84946;SDS011;75241;51.692;5.196;2024-03-23T08:23:29;7.47;;;2.13;;
84946;SDS011;75241;51.692;5.196;2024-03-23T08:26:06;11.98;;;2.40;;
84946;SDS011;75241;51.692;5.196;2024-03-23T08:28:33;8.85;;;2.25;;
84946;SDS011;75241;51.692;5.196;2024-03-23T08:31:03;6.85;;;2.35;;
84946;SDS011;75241;51.692;5.196;2024-03-23T08:33:30;8.90;;;2.53;;
84946;SDS011;75241;51.692;5.196;2024-03-23T08:35:56;11.93;;;2.60;;
84946;SDS011;75241;51.692;5.196;2024-03-23T08:38:29;6.45;;;2.13;;
84946;SDS011;75241;51.692;5.196;2024-03-23T08:41:10;9.73;;;2.70;;
84946;SDS011;75241;51.692;5.196;2024-03-23T08:43:37;5.95;;;2.30;;
84946;SDS011;75241;51.692;5.196;2024-03-23T08:46:04;11.02;;;2.03;;
84946;SDS011;75241;51.692;5.196;2024-03-23T08:48:32;8.52;;;2.20;;
84946;SDS011;75241;51.692;5.196;2024-03-23T08:51:08;6.28;;;2.50;;
84946;SDS011;75241;51.692;5.196;2024-03-23T08:53:34;8.93;;;1.67;;
84946;SDS011;75241;51.692;5.196;2024-03-23T08:56:00;7.60;;;1.77;;
84946;SDS011;75241;51.692;5.196;2024-03-23T08:58:26;7.30;;;2.10;;
84946;SDS011;75241;51.692;5.196;2024-03-23T09:00:52;7.88;;;1.90;;
84946;SDS011;75241;51.692;5.196;2024-03-23T09:03:21;7.20;;;2.10;;
84946;SDS011;75241;51.692;5.196;2024-03-23T09:05:47;8.00;;;2.33;;
84946;SDS011;75241;51.692;5.196;2024-03-23T09:08:12;7.10;;;2.00;;
84946;SDS011;75241;51.692;5.196;2024-03-23T09:10:38;5.43;;;2.88;;
84946;SDS011;75241;51.692;5.196;2024-03-23T09:13:05;8.85;;;1.92;;
84946;SDS011;75241;51.692;5.196;2024-03-23T09:18:01;6.53;;;1.77;;
84946;SDS011;75241;51.692;5.196;2024-03-23T09:20:26;8.23;;;2.15;;
84946;SDS011;75241;51.692;5.196;2024-03-23T09:22:52;6.45;;;2.17;;
84946;SDS011;75241;51.692;5.196;2024-03-23T09:25:17;8.93;;;2.78;;
84946;SDS011;75241;51.692;5.196;2024-03-23T09:27:42;10.93;;;2.03;;
84946;SDS011;75241;51.692;5.196;2024-03-23T09:30:10;5.88;;;2.20;;
84946;SDS011;75241;51.692;5.196;2024-03-23T09:32:36;7.03;;;1.98;;
84946;SDS011;75241;51.692;5.196;2024-03-23T09:35:01;8.38;;;2.20;;
84946;SDS011;75241;51.692;5.196;2024-03-23T09:37:26;7.45;;;2.70;;
84946;SDS011;75241;51.692;5.196;2024-03-23T09:39:52;8.65;;;1.95;;
84946;SDS011;75241;51.692;5.196;2024-03-23T09:42:17;8.43;;;2.10;;
84946;SDS011;75241;51.692;5.196;2024-03-23T09:44:42;6.65;;;2.00;;
84946;SDS011;75241;51.692;5.196;2024-03-23T09:47:09;10.18;;;1.65;;
84946;SDS011;75241;51.692;5.196;2024-03-23T09:49:35;4.82;;;1.77;;
84946;SDS011;75241;51.692;5.196;2024-03-23T09:52:03;4.30;;;1.63;;
84946;SDS011;75241;51.692;5.196;2024-03-23T09:54:29;13.30;;;2.17;;
84946;SDS011;75241;51.692;5.196;2024-03-23T09:56:54;6.05;;;2.05;;
84946;SDS011;75241;51.692;5.196;2024-03-23T09:59:20;7.82;;;1.63;;
84946;SDS011;75241;51.692;5.196;2024-03-23T10:01:45;5.68;;;1.33;;
84946;SDS011;75241;51.692;5.196;2024-03-23T10:04:11;5.88;;;1.88;;
84946;SDS011;75241;51.692;5.196;2024-03-23T10:06:58;6.38;;;1.85;;
84946;SDS011;75241;51.692;5.196;2024-03-23T10:09:36;6.10;;;2.00;;
84946;SDS011;75241;51.692;5.196;2024-03-23T10:12:11;7.45;;;2.10;;
84946;SDS011;75241;51.692;5.196;2024-03-23T10:14:38;7.57;;;2.40;;
84946;SDS011;75241;51.692;5.196;2024-03-23T10:17:14;5.90;;;1.98;;
84946;SDS011;75241;51.692;5.196;2024-03-23T10:19:51;10.07;;;2.38;;
84946;SDS011;75241;51.692;5.196;2024-03-23T10:22:21;6.32;;;1.60;;
84946;SDS011;75241;51.692;5.196;2024-03-23T10:24:48;8.68;;;2.15;;
84946;SDS011;75241;51.692;5.196;2024-03-23T10:27:18;8.23;;;2.33;;
84946;SDS011;75241;51.692;5.196;2024-03-23T10:29:45;9.15;;;1.77;;
84946;SDS011;75241;51.692;5.196;2024-03-23T10:32:11;6.38;;;2.22;;
84946;SDS011;75241;51.692;5.196;2024-03-23T10:34:37;6.00;;;2.08;;
84946;SDS011;75241;51.692;5.196;2024-03-23T10:37:04;7.20;;;2.13;;
84946;SDS011;75241;51.692;5.196;2024-03-23T10:39:33;5.90;;;1.85;;
84946;SDS011;75241;51.692;5.196;2024-03-23T10:42:03;4.38;;;1.67;;
84946;SDS011;75241;51.692;5.196;2024-03-23T10:44:30;7.53;;;1.65;;
84946;SDS011;75241;51.692;5.196;2024-03-23T10:46:59;6.97;;;1.60;;
84946;SDS011;75241;51.692;5.196;2024-03-23T10:49:30;7.20;;;1.77;;
84946;SDS011;75241;51.692;5.196;2024-03-23T10:52:00;6.13;;;1.60;;
84946;SDS011;75241;51.692;5.196;2024-03-23T10:54:26;5.85;;;2.03;;
84946;SDS011;75241;51.692;5.196;2024-03-23T10:59:40;5.85;;;1.38;;
84946;SDS011;75241;51.692;5.196;2024-03-23T11:02:06;4.78;;;1.05;;
84946;SDS011;75241;51.692;5.196;2024-03-23T11:04:37;5.70;;;1.33;;
84946;SDS011;75241;51.692;5.196;2024-03-23T11:07:28;5.90;;;1.13;;
84946;SDS011;75241;51.692;5.196;2024-03-23T11:09:49;3.10;;;1.02;;
84946;SDS011;75241;51.692;5.196;2024-03-23T11:14:59;6.35;;;1.67;;
84946;SDS011;75241;51.692;5.196;2024-03-23T11:17:26;3.92;;;1.13;;
84946;SDS011;75241;51.692;5.196;2024-03-23T11:20:05;5.47;;;1.38;;
84946;SDS011;75241;51.692;5.196;2024-03-23T11:25:02;2.55;;;0.93;;
84946;SDS011;75241;51.692;5.196;2024-03-23T11:27:28;6.85;;;1.50;;
84946;SDS011;75241;51.692;5.196;2024-03-23T11:29:53;5.68;;;1.60;;
84946;SDS011;75241;51.692;5.196;2024-03-23T11:32:19;7.55;;;2.08;;
84946;SDS011;75241;51.692;5.196;2024-03-23T11:34:44;7.65;;;1.80;;
84946;SDS011;75241;51.692;5.196;2024-03-23T11:37:10;9.93;;;2.00;;
84946;SDS011;75241;51.692;5.196;2024-03-23T11:39:35;8.02;;;1.83;;
84946;SDS011;75241;51.692;5.196;2024-03-23T11:42:00;8.40;;;3.40;;
84946;SDS011;75241;51.692;5.196;2024-03-23T11:44:26;9.25;;;2.45;;
84946;SDS011;75241;51.692;5.196;2024-03-23T11:46:52;10.30;;;2.20;;
84946;SDS011;75241;51.692;5.196;2024-03-23T11:51:47;8.00;;;2.63;;
84946;SDS011;75241;51.692;5.196;2024-03-23T11:54:13;8.73;;;2.70;;
84946;SDS011;75241;51.692;5.196;2024-03-23T11:56:38;7.68;;;2.30;;
84946;SDS011;75241;51.692;5.196;2024-03-23T11:59:04;8.82;;;2.28;;
84946;SDS011;75241;51.692;5.196;2024-03-23T12:01:29;6.03;;;1.85;;
84946;SDS011;75241;51.692;5.196;2024-03-23T12:03:56;9.45;;;2.55;;
84946;SDS011;75241;51.692;5.196;2024-03-23T12:06:21;6.18;;;1.83;;
84946;SDS011;75241;51.692;5.196;2024-03-23T12:08:47;7.32;;;2.70;;
84946;SDS011;75241;51.692;5.196;2024-03-23T12:11:13;6.68;;;1.63;;
84946;SDS011;75241;51.692;5.196;2024-03-23T12:13:42;8.13;;;1.73;;
84946;SDS011;75241;51.692;5.196;2024-03-23T12:16:12;6.13;;;1.63;;
84946;SDS011;75241;51.692;5.196;2024-03-23T12:18:40;3.67;;;1.13;;
84946;SDS011;75241;51.692;5.196;2024-03-23T12:21:07;5.30;;;1.95;;
84946;SDS011;75241;51.692;5.196;2024-03-23T12:23:33;4.90;;;1.85;;
84946;SDS011;75241;51.692;5.196;2024-03-23T12:25:59;5.88;;;1.58;;
84946;SDS011;75241;51.692;5.196;2024-03-23T12:28:25;5.63;;;1.23;;
84946;SDS011;75241;51.692;5.196;2024-03-23T12:30:51;4.45;;;1.20;;
84946;SDS011;75241;51.692;5.196;2024-03-23T12:33:20;5.40;;;1.38;;
84946;SDS011;75241;51.692;5.196;2024-03-23T12:35:46;4.22;;;1.45;;
84946;SDS011;75241;51.692;5.196;2024-03-23T12:38:12;4.13;;;1.20;;
84946;SDS011;75241;51.692;5.196;2024-03-23T12:40:37;5.00;;;1.42;;
84946;SDS011;75241;51.692;5.196;2024-03-23T12:43:02;4.43;;;1.45;;
84946;SDS011;75241;51.692;5.196;2024-03-23T12:45:28;5.35;;;1.23;;
84946;SDS011;75241;51.692;5.196;2024-03-23T12:47:53;2.67;;;0.80;;
84946;SDS011;75241;51.692;5.196;2024-03-23T12:50:19;2.75;;;0.73;;
84946;SDS011;75241;51.692;5.196;2024-03-23T12:52:45;4.10;;;1.00;;
84946;SDS011;75241;51.692;5.196;2024-03-23T12:55:10;5.05;;;1.48;;
84946;SDS011;75241;51.692;5.196;2024-03-23T12:57:36;1.73;;;0.70;;
84946;SDS011;75241;51.692;5.196;2024-03-23T13:00:01;4.40;;;0.90;;
84946;SDS011;75241;51.692;5.196;2024-03-23T13:02:28;5.70;;;1.25;;
84946;SDS011;75241;51.692;5.196;2024-03-23T13:04:53;3.90;;;1.15;;
84946;SDS011;75241;51.692;5.196;2024-03-23T13:07:19;4.45;;;1.20;;
84946;SDS011;75241;51.692;5.196;2024-03-23T13:09:46;4.93;;;1.63;;
84946;SDS011;75241;51.692;5.196;2024-03-23T13:12:11;8.95;;;1.38;;
84946;SDS011;75241;51.692;5.196;2024-03-23T13:14:37;5.45;;;1.52;;
84946;SDS011;75241;51.692;5.196;2024-03-23T13:17:06;5.63;;;1.88;;
84946;SDS011;75241;51.692;5.196;2024-03-23T13:19:32;4.50;;;1.35;;
84946;SDS011;75241;51.692;5.196;2024-03-23T13:21:58;4.13;;;1.40;;
84946;SDS011;75241;51.692;5.196;2024-03-23T13:24:25;2.05;;;1.20;;
84946;SDS011;75241;51.692;5.196;2024-03-23T13:26:51;3.78;;;1.20;;
84946;SDS011;75241;51.692;5.196;2024-03-23T13:29:17;6.78;;;1.55;;
84946;SDS011;75241;51.692;5.196;2024-03-23T13:31:43;6.40;;;1.52;;
84946;SDS011;75241;51.692;5.196;2024-03-23T13:34:09;3.95;;;1.10;;
84946;SDS011;75241;51.692;5.196;2024-03-23T13:36:34;6.80;;;1.45;;
84946;SDS011;75241;51.692;5.196;2024-03-23T13:39:01;5.20;;;1.55;;
84946;SDS011;75241;51.692;5.196;2024-03-23T13:44:13;5.70;;;1.17;;
84946;SDS011;75241;51.692;5.196;2024-03-23T13:46:42;4.68;;;1.60;;
84946;SDS011;75241;51.692;5.196;2024-03-23T13:49:13;8.65;;;2.00;;
84946;SDS011;75241;51.692;5.196;2024-03-23T13:52:02;6.82;;;1.73;;
84946;SDS011;75241;51.692;5.196;2024-03-23T13:54:28;6.07;;;1.50;;
84946;SDS011;75241;51.692;5.196;2024-03-23T13:56:54;6.07;;;1.50;;
84946;SDS011;75241;51.692;5.196;2024-03-23T13:59:21;11.98;;;2.40;;
84946;SDS011;75241;51.692;5.196;2024-03-23T14:01:48;5.50;;;2.08;;
84946;SDS011;75241;51.692;5.196;2024-03-23T14:04:14;4.93;;;1.50;;
84946;SDS011;75241;51.692;5.196;2024-03-23T14:06:41;7.90;;;1.52;;
84946;SDS011;75241;51.692;5.196;2024-03-23T14:09:07;7.45;;;2.30;;
84946;SDS011;75241;51.692;5.196;2024-03-23T14:11:34;8.18;;;1.85;;
84946;SDS011;75241;51.692;5.196;2024-03-23T14:14:01;6.35;;;1.35;;
84946;SDS011;75241;51.692;5.196;2024-03-23T14:16:26;4.45;;;1.30;;
84946;SDS011;75241;51.692;5.196;2024-03-23T14:18:52;6.30;;;1.27;;
84946;SDS011;75241;51.692;5.196;2024-03-23T14:21:18;6.90;;;1.30;;
84946;SDS011;75241;51.692;5.196;2024-03-23T14:23:43;4.93;;;1.10;;
84946;SDS011;75241;51.692;5.196;2024-03-23T14:26:09;3.95;;;1.55;;
84946;SDS011;75241;51.692;5.196;2024-03-23T14:28:34;9.05;;;2.25;;
84946;SDS011;75241;51.692;5.196;2024-03-23T14:31:00;8.82;;;1.45;;
84946;SDS011;75241;51.692;5.196;2024-03-23T14:33:26;4.50;;;1.10;;
84946;SDS011;75241;51.692;5.196;2024-03-23T14:35:52;0.93;;;0.80;;
84946;SDS011;75241;51.692;5.196;2024-03-23T14:38:18;2.10;;;0.73;;
84946;SDS011;75241;51.692;5.196;2024-03-23T14:40:44;1.77;;;0.70;;
84946;SDS011;75241;51.692;5.196;2024-03-23T14:43:09;1.90;;;0.70;;
84946;SDS011;75241;51.692;5.196;2024-03-23T14:45:35;3.45;;;0.82;;
84946;SDS011;75241;51.692;5.196;2024-03-23T14:48:00;5.18;;;1.70;;
84946;SDS011;75241;51.692;5.196;2024-03-23T14:50:26;5.38;;;1.23;;
84946;SDS011;75241;51.692;5.196;2024-03-23T14:52:51;4.70;;;1.13;;
84946;SDS011;75241;51.692;5.196;2024-03-23T14:55:17;4.88;;;1.40;;
84946;SDS011;75241;51.692;5.196;2024-03-23T14:57:43;6.18;;;1.30;;
84946;SDS011;75241;51.692;5.196;2024-03-23T15:00:09;7.38;;;1.80;;
84946;SDS011;75241;51.692;5.196;2024-03-23T15:02:38;3.60;;;1.17;;
84946;SDS011;75241;51.692;5.196;2024-03-23T15:05:04;5.10;;;1.10;;
84946;SDS011;75241;51.692;5.196;2024-03-23T15:07:34;1.35;;;0.60;;
84946;SDS011;75241;51.692;5.196;2024-03-23T15:10:00;1.33;;;0.50;;
84946;SDS011;75241;51.692;5.196;2024-03-23T15:12:25;1.15;;;0.50;;
84946;SDS011;75241;51.692;5.196;2024-03-23T15:14:51;0.73;;;0.40;;
84946;SDS011;75241;51.692;5.196;2024-03-23T15:17:17;0.98;;;0.43;;
84946;SDS011;75241;51.692;5.196;2024-03-23T15:19:43;1.35;;;0.30;;
84946;SDS011;75241;51.692;5.196;2024-03-23T15:22:08;0.93;;;0.20;;
84946;SDS011;75241;51.692;5.196;2024-03-23T15:24:35;2.40;;;0.70;;
84946;SDS011;75241;51.692;5.196;2024-03-23T15:27:01;1.70;;;0.70;;
84946;SDS011;75241;51.692;5.196;2024-03-23T15:29:29;0.75;;;0.40;;
84946;SDS011;75241;51.692;5.196;2024-03-23T15:31:55;3.40;;;0.57;;
84946;SDS011;75241;51.692;5.196;2024-03-23T15:34:20;1.48;;;0.60;;
84946;SDS011;75241;51.692;5.196;2024-03-23T15:36:47;1.30;;;0.60;;
84946;SDS011;75241;51.692;5.196;2024-03-23T15:39:14;4.50;;;0.65;;
84946;SDS011;75241;51.692;5.196;2024-03-23T15:41:39;2.70;;;0.50;;
84946;SDS011;75241;51.692;5.196;2024-03-23T15:44:05;2.58;;;0.70;;
84946;SDS011;75241;51.692;5.196;2024-03-23T15:46:31;2.28;;;0.50;;
84946;SDS011;75241;51.692;5.196;2024-03-23T15:48:56;1.02;;;0.52;;
84946;SDS011;75241;51.692;5.196;2024-03-23T15:51:22;0.73;;;0.50;;
84946;SDS011;75241;51.692;5.196;2024-03-23T15:53:47;0.73;;;0.45;;
84946;SDS011;75241;51.692;5.196;2024-03-23T15:56:12;2.13;;;0.55;;